createdAt,value
2018-12-17T00:00:50.375Z,871.20
2018-12-17T00:01:50.341Z,1081.40
2018-12-17T00:02:50.391Z,809.70
2018-12-17T00:03:50.347Z,1003.20
2018-12-17T00:04:50.333Z,1043.60
2018-12-17T00:05:50.334Z,1027.00
2018-12-17T00:06:50.346Z,1146.70
2018-12-17T00:07:50.335Z,1057.80
2018-12-17T00:08:50.326Z,924.50
2018-12-17T00:09:50.304Z,1028.30
2018-12-17T00:10:50.316Z,1001.00
2018-12-17T00:11:50.358Z,1047.30
2018-12-17T00:12:50.330Z,874.50
2018-12-17T00:13:50.315Z,987.50
2018-12-17T00:14:50.302Z,1074.30
2018-12-17T00:15:50.337Z,1059.60
2018-12-17T00:16:50.275Z,1052.00
2018-12-17T00:17:50.299Z,1220.30
2018-12-17T00:18:50.266Z,1075.40
2018-12-17T00:19:50.286Z,958.20
2018-12-17T00:20:50.263Z,1004.40
2018-12-17T00:21:50.267Z,1137.00
2018-12-17T00:22:50.269Z,941.20
2018-12-17T00:23:50.256Z,983.20
2018-12-17T00:24:50.248Z,1366.00
2018-12-17T00:25:50.233Z,987.10
2018-12-17T00:26:50.227Z,937.80
2018-12-17T00:27:50.237Z,788.70
2018-12-17T00:28:50.218Z,1151.50
2018-12-17T00:29:50.222Z,991.20
2018-12-17T00:30:50.221Z,1068.30
2018-12-17T00:31:50.216Z,1082.80
2018-12-17T00:32:50.215Z,1116.50
2018-12-17T00:33:50.222Z,1101.90
2018-12-17T00:34:50.216Z,978.10
2018-12-17T00:35:50.191Z,943.50
2018-12-17T00:36:50.183Z,917.30
2018-12-17T00:37:50.177Z,887.10
2018-12-17T00:38:50.173Z,876.70
2018-12-17T00:39:50.174Z,880.40
2018-12-17T00:40:50.242Z,951.60
2018-12-17T00:41:50.160Z,1045.50
2018-12-17T00:42:50.146Z,1036.30
2018-12-17T00:43:50.164Z,1060.50
2018-12-17T00:44:50.166Z,869.60
2018-12-17T00:45:50.163Z,1082.60
2018-12-17T00:46:50.160Z,913.40
2018-12-17T00:47:50.156Z,1146.20
2018-12-17T00:48:50.140Z,950.10
2018-12-17T00:49:50.134Z,1103.30
2018-12-17T00:50:50.176Z,1185.70
2018-12-17T00:51:50.117Z,1041.80
2018-12-17T00:52:50.127Z,1144.90
2018-12-17T00:53:50.091Z,1086.40
2018-12-17T00:54:50.127Z,1081.70
2018-12-17T00:55:50.119Z,1059.00
2018-12-17T00:56:50.115Z,1257.90
2018-12-17T00:57:50.097Z,956.40
2018-12-17T00:58:50.106Z,1165.00
2018-12-17T00:59:50.088Z,1175.30
2018-12-17T01:00:50.086Z,1129.20
2018-12-17T01:01:50.076Z,1111.90
2018-12-17T01:02:50.073Z,1058.50
2018-12-17T01:03:50.070Z,1147.50
2018-12-17T01:04:50.058Z,1162.10
2018-12-17T01:05:50.096Z,1132.30
2018-12-17T01:06:50.080Z,1044.30
2018-12-17T01:07:50.046Z,1050.50
2018-12-17T01:08:50.071Z,1026.60
2018-12-17T01:09:50.054Z,1040.90
2018-12-17T01:10:50.011Z,1015.50
2018-12-17T01:11:50.047Z,1019.60
2018-12-17T01:12:50.028Z,1102.50
2018-12-17T01:13:50.019Z,1093.10
2018-12-17T01:14:50.012Z,1011.80
2018-12-17T01:15:50.015Z,1114.60
2018-12-17T01:16:50.001Z,969.80
2018-12-17T01:17:49.993Z,1052.20
2018-12-17T01:18:49.973Z,1350.40
2018-12-17T01:19:49.995Z,1308.20
2018-12-17T01:20:49.982Z,1023.00
2018-12-17T01:21:50.011Z,1170.40
2018-12-17T01:22:49.980Z,1058.90
2018-12-17T01:23:50.018Z,1141.00
2018-12-17T01:24:49.978Z,1249.90
2018-12-17T01:25:49.967Z,1146.00
2018-12-17T01:26:49.952Z,1204.10
2018-12-17T01:27:49.965Z,1276.10
2018-12-17T01:28:49.948Z,1266.10
2018-12-17T01:29:49.960Z,1281.90
2018-12-17T01:30:49.947Z,1201.60
2018-12-17T01:31:49.926Z,1192.50
2018-12-17T01:32:49.949Z,1101.60
2018-12-17T01:33:49.997Z,1316.20
2018-12-17T01:34:49.931Z,1217.60
2018-12-17T01:35:49.935Z,1208.50
2018-12-17T01:36:49.930Z,1170.10
2018-12-17T01:37:49.908Z,993.90
2018-12-17T01:38:49.896Z,1217.40
2018-12-17T01:39:49.904Z,1301.30
2018-12-17T01:40:49.913Z,1023.20
2018-12-17T01:41:49.896Z,1110.70
2018-12-17T01:42:49.864Z,1161.60
2018-12-17T01:43:49.890Z,1305.30
2018-12-17T01:44:49.879Z,1366.70
2018-12-17T01:45:49.863Z,1038.70
2018-12-17T01:46:49.866Z,1120.60
2018-12-17T01:47:49.884Z,1348.00
2018-12-17T01:48:49.843Z,1287.60
2018-12-17T01:49:49.863Z,1318.80
2018-12-17T01:50:49.893Z,1480.60
2018-12-17T01:51:49.887Z,1244.10
2018-12-17T01:52:49.939Z,1104.50
2018-12-17T01:53:49.822Z,1025.00
2018-12-17T01:54:49.848Z,1341.90
2018-12-17T01:55:49.845Z,1210.40
2018-12-17T01:56:49.863Z,1313.30
2018-12-17T01:57:49.826Z,1229.50
2018-12-17T01:58:49.820Z,1027.70
2018-12-17T01:59:49.825Z,1154.50
2018-12-17T02:00:49.826Z,1157.80
2018-12-17T02:01:49.857Z,1143.80
2018-12-17T02:02:49.812Z,1050.00
2018-12-17T02:03:49.787Z,1327.90
2018-12-17T02:04:49.791Z,1233.50
2018-12-17T02:05:49.770Z,1283.80
2018-12-17T02:06:49.775Z,1156.60
2018-12-17T02:07:49.774Z,1108.60
2018-12-17T02:08:49.812Z,1103.90
2018-12-17T02:09:49.760Z,1058.20
2018-12-17T02:10:49.776Z,1157.50
2018-12-17T02:11:49.770Z,750.00
2018-12-17T02:12:49.780Z,1256.20
2018-12-17T02:13:49.798Z,1118.30
2018-12-17T02:14:49.771Z,1118.50
2018-12-17T02:15:49.744Z,1305.90
2018-12-17T02:16:49.722Z,1148.50
2018-12-17T02:17:49.717Z,1073.20
2018-12-17T02:18:49.723Z,1110.90
2018-12-17T02:19:49.723Z,1153.00
2018-12-17T02:20:49.721Z,1317.80
2018-12-17T02:21:49.702Z,1215.30
2018-12-17T02:22:49.687Z,1245.40
2018-12-17T02:23:49.683Z,1103.30
2018-12-17T02:24:49.704Z,1271.50
2018-12-17T02:25:49.678Z,1215.40
2018-12-17T02:26:49.677Z,1383.50
2018-12-17T02:27:49.673Z,1336.70
2018-12-17T02:28:49.674Z,1367.80
2018-12-17T02:29:49.667Z,1081.30
2018-12-17T02:30:49.669Z,1081.20
2018-12-17T02:31:49.670Z,1318.50
2018-12-17T02:32:49.639Z,1403.10
2018-12-17T02:33:49.701Z,1352.60
2018-12-17T02:34:49.642Z,1438.00
2018-12-17T02:35:49.629Z,1318.40
2018-12-17T02:36:49.635Z,1258.00
2018-12-17T02:37:49.633Z,1156.20
2018-12-17T02:38:49.664Z,1528.00
2018-12-17T02:39:49.627Z,1299.30
2018-12-17T02:40:49.605Z,1231.40
2018-12-17T02:41:49.609Z,1306.70
2018-12-17T02:42:49.630Z,1189.50
2018-12-17T02:43:49.596Z,1558.50
2018-12-17T02:44:49.586Z,1535.30
2018-12-17T02:45:49.607Z,1585.90
2018-12-17T02:46:49.595Z,1560.00
2018-12-17T02:47:49.578Z,1389.00
2018-12-17T02:48:49.569Z,1482.90
2018-12-17T02:49:49.567Z,1366.50
2018-12-17T02:50:49.578Z,1413.50
2018-12-17T02:51:49.562Z,1772.80
2018-12-17T02:52:49.546Z,1560.00
2018-12-17T02:53:49.541Z,1566.40
2018-12-17T02:54:49.541Z,1459.80
2018-12-17T02:55:49.537Z,1645.60
2018-12-17T02:56:49.544Z,1553.60
2018-12-17T02:57:49.551Z,1530.20
2018-12-17T02:58:49.522Z,1606.20
2018-12-17T02:59:49.558Z,1470.50
2018-12-17T03:00:49.514Z,1826.00
2018-12-17T03:01:49.521Z,1767.80
2018-12-17T03:02:49.503Z,1540.20
2018-12-17T03:03:49.514Z,1597.80
2018-12-17T03:04:49.495Z,1511.00
2018-12-17T03:05:49.518Z,1525.20
2018-12-17T03:06:49.485Z,1556.60
2018-12-17T03:07:49.462Z,1602.60
2018-12-17T03:08:49.521Z,1553.50
2018-12-17T03:09:49.470Z,1467.30
2018-12-17T03:10:49.493Z,1844.90
2018-12-17T03:11:49.459Z,1414.20
2018-12-17T03:12:49.466Z,1580.80
2018-12-17T03:13:49.448Z,1491.70
2018-12-17T03:14:49.441Z,1657.80
2018-12-17T03:15:49.447Z,1690.10
2018-12-17T03:16:49.419Z,1641.00
2018-12-17T03:17:49.438Z,1654.10
2018-12-17T03:18:49.426Z,1735.70
2018-12-17T03:19:49.414Z,1775.50
2018-12-17T03:20:49.413Z,1924.00
2018-12-17T03:21:49.402Z,1999.90
2018-12-17T03:22:49.403Z,1905.80
2018-12-17T03:23:49.409Z,1566.60
2018-12-17T03:24:49.378Z,1979.40
2018-12-17T03:25:49.423Z,1783.20
2018-12-17T03:26:49.391Z,1693.10
2018-12-17T03:27:49.388Z,1703.50
2018-12-17T03:28:51.852Z,1870.80
2018-12-17T03:29:49.354Z,1809.50
2018-12-17T03:30:49.362Z,1999.90
2018-12-17T03:31:49.354Z,1989.00
2018-12-17T03:32:49.333Z,1912.70
2018-12-17T03:33:49.336Z,1918.00
2018-12-17T03:34:49.335Z,1770.80
2018-12-17T03:35:49.344Z,1646.20
2018-12-17T03:36:49.327Z,1591.30
2018-12-17T03:37:49.334Z,1850.90
2018-12-17T03:38:49.322Z,1999.90
2018-12-17T03:39:49.323Z,1555.10
2018-12-17T03:40:49.310Z,1738.60
2018-12-17T03:41:49.300Z,1905.40
2018-12-17T03:42:49.293Z,1999.90
2018-12-17T03:43:49.277Z,1608.40
2018-12-17T03:44:49.269Z,1700.00
2018-12-17T03:45:49.270Z,1601.20
2018-12-17T03:46:49.269Z,1368.00
2018-12-17T03:47:49.293Z,1412.30
2018-12-17T03:48:49.246Z,1706.80
2018-12-17T03:49:49.242Z,1577.50
2018-12-17T03:50:49.289Z,1928.50
2018-12-17T03:51:49.253Z,1847.60
2018-12-17T03:52:49.250Z,1999.90
2018-12-17T03:53:49.252Z,1999.90
2018-12-17T03:54:49.213Z,1999.90
2018-12-17T03:55:49.220Z,1857.80
2018-12-17T03:56:49.218Z,1841.30
2018-12-17T03:57:49.210Z,1999.90
2018-12-17T03:58:49.203Z,1999.90
2018-12-17T03:59:49.215Z,1999.90
2018-12-17T04:00:49.198Z,1999.90
2018-12-17T04:01:49.192Z,1999.90
2018-12-17T04:02:49.160Z,1999.90
2018-12-17T04:03:49.158Z,1890.30
2018-12-17T04:04:49.173Z,1773.20
2018-12-17T04:05:49.177Z,1999.90
2018-12-17T04:06:49.154Z,1866.40
2018-12-17T04:07:49.165Z,1999.90
2018-12-17T04:08:49.159Z,1999.90
2018-12-17T04:09:49.185Z,1999.90
2018-12-17T04:10:49.163Z,1812.10
2018-12-17T04:11:49.124Z,1562.30
2018-12-17T04:12:49.108Z,1786.80
2018-12-17T04:13:49.136Z,1962.80
2018-12-17T04:14:49.118Z,1999.90
2018-12-17T04:15:49.166Z,1905.30
2018-12-17T04:16:49.106Z,1999.90
2018-12-17T04:17:49.088Z,1999.90
2018-12-17T04:18:49.070Z,1999.90
2018-12-17T04:19:49.089Z,1931.20
2018-12-17T04:20:49.102Z,1999.90
2018-12-17T04:21:49.078Z,1999.90
2018-12-17T04:22:49.044Z,1999.90
2018-12-17T04:23:49.065Z,1999.90
2018-12-17T04:24:49.050Z,1999.90
2018-12-17T04:25:49.079Z,1999.90
2018-12-17T04:26:49.045Z,1999.90
2018-12-17T04:27:49.041Z,1999.90
2018-12-17T04:28:49.046Z,1999.90
2018-12-17T04:29:49.033Z,1999.90
2018-12-17T04:30:49.014Z,1999.90
2018-12-17T04:31:49.014Z,1999.90
2018-12-17T04:32:49.014Z,1999.90
2018-12-17T04:33:49.006Z,1999.90
2018-12-17T04:34:49.013Z,1999.90
2018-12-17T04:35:49.240Z,1999.90
2018-12-17T04:36:48.986Z,1999.90
2018-12-17T04:37:48.980Z,1999.90
2018-12-17T04:38:50.623Z,1971.50
2018-12-17T04:39:48.970Z,1999.90
2018-12-17T04:40:48.978Z,1999.90
2018-12-17T04:41:48.958Z,1956.70
2018-12-17T04:42:48.958Z,1999.90
2018-12-17T04:43:48.946Z,1999.90
2018-12-17T04:44:48.942Z,1999.90
2018-12-17T04:45:48.928Z,1999.90
2018-12-17T04:46:48.935Z,1999.90
2018-12-17T04:47:48.924Z,1999.90
2018-12-17T04:48:48.905Z,1999.90
2018-12-17T04:49:48.918Z,1999.90
2018-12-17T04:50:48.892Z,1999.90
2018-12-17T04:51:48.917Z,1999.90
2018-12-17T04:52:48.880Z,1999.90
2018-12-17T04:53:48.889Z,1999.90
2018-12-17T04:54:48.875Z,1999.90
2018-12-17T04:55:48.889Z,1999.90
2018-12-17T04:56:48.875Z,1999.90
2018-12-17T04:57:48.907Z,1999.90
2018-12-17T04:58:48.858Z,1999.90
2018-12-17T04:59:48.850Z,1999.90
2018-12-17T05:00:48.861Z,1999.90
2018-12-17T05:01:48.840Z,1999.90
2018-12-17T05:02:48.828Z,1999.90
2018-12-17T05:03:48.869Z,1999.90
2018-12-17T05:04:48.848Z,1999.90
2018-12-17T05:05:48.802Z,1999.90
2018-12-17T05:06:48.850Z,1999.90
2018-12-17T05:07:48.818Z,1999.90
2018-12-17T05:08:48.781Z,1999.90
2018-12-17T05:09:48.799Z,1999.90
2018-12-17T05:10:48.771Z,1999.90
2018-12-17T05:11:48.818Z,1999.90
2018-12-17T05:12:48.783Z,1999.90
2018-12-17T05:13:48.776Z,1999.90
2018-12-17T05:14:48.803Z,1999.90
2018-12-17T05:15:48.747Z,1999.90
2018-12-17T05:16:48.749Z,1999.90
2018-12-17T05:17:48.743Z,1999.90
2018-12-17T05:18:48.752Z,1999.90
2018-12-17T05:19:48.718Z,1999.90
2018-12-17T05:20:48.725Z,1999.90
2018-12-17T05:21:48.767Z,1999.90
2018-12-17T05:22:49.056Z,1999.90
2018-12-17T05:23:48.695Z,1999.90
2018-12-17T05:24:48.735Z,1994.50
2018-12-17T05:25:48.694Z,1999.90
2018-12-17T05:26:48.690Z,1999.90
2018-12-17T05:27:48.674Z,1999.90
2018-12-17T05:28:48.682Z,1999.90
2018-12-17T05:29:48.666Z,1999.90
2018-12-17T05:30:48.683Z,1999.90
2018-12-17T05:31:48.640Z,1999.90
2018-12-17T05:32:48.643Z,1999.90
2018-12-17T05:33:48.963Z,1999.90
2018-12-17T05:34:48.650Z,1999.90
2018-12-17T05:35:48.629Z,1999.90
2018-12-17T05:36:48.622Z,1999.90
2018-12-17T05:37:48.634Z,1999.90
2018-12-17T05:38:48.661Z,1999.90
2018-12-17T05:39:48.618Z,1999.90
2018-12-17T05:40:48.604Z,1999.90
2018-12-17T05:41:48.600Z,1999.90
2018-12-17T05:42:48.579Z,1999.90
2018-12-17T05:43:48.557Z,1999.90
2018-12-17T05:44:48.563Z,1999.90
2018-12-17T05:45:48.613Z,1999.90
2018-12-17T05:46:48.546Z,1999.90
2018-12-17T05:47:48.604Z,1999.90
2018-12-17T05:48:48.546Z,1999.90
2018-12-17T05:49:48.560Z,1999.90
2018-12-17T05:50:48.548Z,1999.90
2018-12-17T05:51:48.521Z,1999.90
2018-12-17T05:52:48.531Z,1999.90
2018-12-17T05:53:48.516Z,1999.90
2018-12-17T05:54:48.563Z,1999.90
2018-12-17T05:55:48.511Z,1999.90
2018-12-17T05:56:48.502Z,1999.90
2018-12-17T05:57:48.500Z,1999.90
2018-12-17T05:58:48.534Z,1999.90
2018-12-17T05:59:48.787Z,1999.90
2018-12-17T06:00:48.490Z,1999.90
2018-12-17T06:01:48.504Z,1999.90
2018-12-17T06:02:48.464Z,1999.90
2018-12-17T06:03:48.474Z,1999.90
2018-12-17T06:04:48.457Z,1999.90
2018-12-17T06:05:48.456Z,1999.90
2018-12-17T06:06:48.467Z,1999.90
2018-12-17T06:07:48.438Z,1999.90
2018-12-17T06:08:48.431Z,1999.90
2018-12-17T06:09:48.412Z,1999.90
2018-12-17T06:10:48.718Z,1999.90
2018-12-17T06:11:48.426Z,1999.90
2018-12-17T06:12:48.403Z,1999.90
2018-12-17T06:13:48.404Z,1999.90
2018-12-17T06:14:48.390Z,1999.90
2018-12-17T06:15:48.367Z,1999.90
2018-12-17T06:16:48.377Z,1999.90
2018-12-17T06:17:49.877Z,1999.90
2018-12-17T06:18:48.373Z,1999.90
2018-12-17T06:19:48.357Z,1999.90
2018-12-17T06:20:48.363Z,1999.90
2018-12-17T06:21:48.349Z,1999.90
2018-12-17T06:22:48.355Z,1999.90
2018-12-17T06:23:48.336Z,1999.90
2018-12-17T06:24:48.307Z,1999.90
2018-12-17T06:25:48.319Z,1999.90
2018-12-17T06:26:48.311Z,1999.90
2018-12-17T06:27:48.322Z,1999.90
2018-12-17T06:28:48.342Z,1914.10
2018-12-17T06:29:48.316Z,1999.90
2018-12-17T06:30:48.341Z,1999.90
2018-12-17T06:31:48.289Z,1913.70
2018-12-17T06:32:48.286Z,1999.90
2018-12-17T06:33:48.272Z,1999.90
2018-12-17T06:34:48.260Z,1999.90
2018-12-17T06:35:48.271Z,1999.90
2018-12-17T06:36:48.255Z,1999.90
2018-12-17T06:37:48.236Z,1999.90
2018-12-17T06:38:48.229Z,1999.90
2018-12-17T06:39:48.231Z,1999.90
2018-12-17T06:40:48.235Z,1999.90
2018-12-17T06:41:48.234Z,1999.90
2018-12-17T06:42:48.243Z,1999.90
2018-12-17T06:43:48.250Z,1999.90
2018-12-17T06:44:48.256Z,1999.90
2018-12-17T06:45:48.255Z,1999.90
2018-12-17T06:46:48.188Z,1999.90
2018-12-17T06:47:48.188Z,1999.90
2018-12-17T06:48:48.181Z,1999.90
2018-12-17T06:49:48.174Z,1999.90
2018-12-17T06:50:48.178Z,1999.90
2018-12-17T06:51:48.164Z,1999.90
2018-12-17T06:53:48.196Z,1999.90
2018-12-17T06:54:54.588Z,1999.90
2018-12-17T06:55:48.183Z,1999.90
2018-12-17T06:56:48.134Z,1999.90
2018-12-17T06:57:48.131Z,1999.90
2018-12-17T06:58:48.121Z,1999.90
2018-12-17T06:59:48.131Z,1999.90
2018-12-17T07:00:48.114Z,1999.90
2018-12-17T07:01:48.088Z,1999.90
2018-12-17T07:02:48.099Z,1999.90
2018-12-17T07:03:48.087Z,1999.90
2018-12-17T07:04:48.083Z,1999.90
2018-12-17T07:05:48.081Z,1999.90
2018-12-17T07:06:48.063Z,1649.80
2018-12-17T07:07:48.063Z,1999.90
2018-12-17T07:08:48.071Z,1885.00
2018-12-17T07:09:48.061Z,1999.90
2018-12-17T07:10:48.149Z,1999.90
2018-12-17T07:11:48.025Z,1902.60
2018-12-17T07:12:48.329Z,1964.30
2018-12-17T07:13:48.093Z,1802.00
2018-12-17T07:14:48.018Z,1830.20
2018-12-17T07:15:48.045Z,1836.50
2018-12-17T07:16:48.004Z,1528.60
2018-12-17T07:17:48.022Z,1549.50
2018-12-17T07:18:48.004Z,1713.10
2018-12-17T07:19:47.988Z,1827.20
2018-12-17T07:20:48.000Z,1696.70
2018-12-17T07:21:47.993Z,1809.10
2018-12-17T07:22:47.997Z,1564.00
2018-12-17T07:23:47.993Z,1695.80
2018-12-17T07:24:47.986Z,1581.50
2018-12-17T07:25:47.980Z,1508.10
2018-12-17T07:26:47.947Z,1438.00
2018-12-17T07:27:47.957Z,1652.50
2018-12-17T07:28:47.956Z,1369.70
2018-12-17T07:29:49.946Z,1601.20
2018-12-17T07:30:47.922Z,1365.90
2018-12-17T07:31:47.926Z,1338.70
2018-12-17T07:32:47.947Z,1397.40
2018-12-17T07:33:47.921Z,1298.30
2018-12-17T07:34:47.908Z,1376.70
2018-12-17T07:35:47.912Z,1274.90
2018-12-17T07:36:47.910Z,1229.10
2018-12-17T07:37:47.892Z,1472.10
2018-12-17T07:38:48.154Z,1289.20
2018-12-17T07:39:47.888Z,1341.20
2018-12-17T07:40:47.897Z,1303.90
2018-12-17T07:41:47.890Z,1456.40
2018-12-17T07:42:47.859Z,1382.00
2018-12-17T07:43:47.867Z,1246.10
2018-12-17T07:44:47.860Z,1345.10
2018-12-17T07:45:47.847Z,1497.00
2018-12-17T07:46:47.841Z,1444.70
2018-12-17T07:47:47.844Z,1646.20
2018-12-17T07:48:47.846Z,1538.30
2018-12-17T07:49:47.826Z,1383.90
2018-12-17T07:50:47.810Z,1410.50
2018-12-17T07:51:47.826Z,1565.60
2018-12-17T07:52:47.816Z,1475.90
2018-12-17T07:53:47.835Z,1475.00
2018-12-17T07:54:48.133Z,1425.70
2018-12-17T07:55:47.805Z,1470.60
2018-12-17T07:56:47.787Z,1497.60
2018-12-17T07:57:47.781Z,1501.60
2018-12-17T07:58:47.769Z,1324.20
2018-12-17T07:59:47.788Z,1058.50
2018-12-17T08:00:47.816Z,1563.70
2018-12-17T08:01:47.751Z,1551.40
2018-12-17T08:02:47.746Z,1493.10
2018-12-17T08:03:47.764Z,1476.80
2018-12-17T08:04:47.747Z,1363.00
2018-12-17T08:05:47.744Z,1218.70
2018-12-17T08:06:47.735Z,1476.80
2018-12-17T08:07:47.742Z,1415.90
2018-12-17T08:08:47.725Z,1454.90
2018-12-17T08:09:47.732Z,1510.60
2018-12-17T08:10:47.687Z,1512.40
2018-12-17T08:11:47.696Z,1692.70
2018-12-17T08:12:47.715Z,1374.90
2018-12-17T08:13:47.698Z,1432.70
2018-12-17T08:14:47.680Z,1336.90
2018-12-17T08:15:47.696Z,1484.00
2018-12-17T08:16:47.670Z,1419.70
2018-12-17T08:17:47.673Z,1441.90
2018-12-17T08:18:47.666Z,1466.60
2018-12-17T08:19:47.661Z,1267.70
2018-12-17T08:20:47.663Z,1574.00
2018-12-17T08:21:47.634Z,1773.10
2018-12-17T08:22:47.681Z,1476.10
2018-12-17T08:23:47.639Z,1659.10
2018-12-17T08:24:47.635Z,1567.10
2018-12-17T08:25:47.615Z,1632.30
2018-12-17T08:26:47.595Z,1650.70
2018-12-17T08:27:47.618Z,1646.20
2018-12-17T08:28:47.594Z,1486.80
2018-12-17T08:29:47.590Z,1399.00
2018-12-17T08:30:47.591Z,1259.30
2018-12-17T08:31:47.578Z,1321.40
2018-12-17T08:32:47.588Z,1275.80
2018-12-17T08:33:47.566Z,1422.10
2018-12-17T08:34:47.581Z,1443.50
2018-12-17T08:35:47.570Z,1552.40
2018-12-17T08:36:47.578Z,1621.10
2018-12-17T08:37:47.540Z,1525.20
2018-12-17T08:38:47.537Z,1351.90
2018-12-17T08:39:47.550Z,1221.90
2018-12-17T08:40:47.539Z,1255.30
2018-12-17T08:41:47.532Z,1383.00
2018-12-17T08:42:47.542Z,1458.00
2018-12-17T08:43:47.537Z,1281.50
2018-12-17T08:44:47.517Z,1464.90
2018-12-17T08:45:47.514Z,1420.30
2018-12-17T08:46:47.520Z,1512.70
2018-12-17T08:47:47.499Z,1281.00
2018-12-17T08:48:47.471Z,1438.70
2018-12-17T08:49:47.521Z,1530.20
2018-12-17T08:50:47.487Z,1502.00
2018-12-17T08:51:47.487Z,1422.30
2018-12-17T08:52:47.487Z,1407.40
2018-12-17T08:53:47.464Z,1552.20
2018-12-17T08:54:47.461Z,1533.70
2018-12-17T08:55:47.469Z,1011.50
2018-12-17T08:56:47.505Z,1225.80
2018-12-17T08:57:47.443Z,976.20
2018-12-17T08:58:47.418Z,959.40
2018-12-17T08:59:47.414Z,1034.60
2018-12-17T09:00:47.431Z,841.40
2018-12-17T09:01:47.439Z,677.20
2018-12-17T09:02:47.433Z,897.00
2018-12-17T09:03:47.650Z,1090.20
2018-12-17T09:04:47.400Z,869.80
2018-12-17T09:05:47.420Z,893.10
2018-12-17T09:06:47.375Z,1019.40
2018-12-17T09:07:47.416Z,962.00
2018-12-17T09:08:47.440Z,881.60
2018-12-17T09:09:47.396Z,869.70
2018-12-17T09:10:47.375Z,650.80
2018-12-17T09:11:47.382Z,680.60
2018-12-17T09:12:47.368Z,725.50
2018-12-17T09:13:47.362Z,694.80
2018-12-17T09:14:47.361Z,841.10
2018-12-17T09:15:47.351Z,734.70
2018-12-17T09:16:47.334Z,541.20
2018-12-17T09:17:47.346Z,654.20
2018-12-17T09:18:47.327Z,497.60
2018-12-17T09:19:47.314Z,567.00
2018-12-17T09:20:47.301Z,623.10
2018-12-17T09:21:47.328Z,723.00
2018-12-17T09:22:47.347Z,744.60
2018-12-17T09:23:47.313Z,590.60
2018-12-17T09:24:47.290Z,789.00
2018-12-17T09:25:47.299Z,573.40
2018-12-17T09:26:47.283Z,698.90
2018-12-17T09:27:47.336Z,594.60
2018-12-17T09:28:47.289Z,580.40
2018-12-17T09:29:47.325Z,517.80
2018-12-17T09:30:47.275Z,513.70
2018-12-17T09:31:47.299Z,471.20
2018-12-17T09:32:47.300Z,487.20
2018-12-17T09:33:47.270Z,518.40
2018-12-17T09:34:47.240Z,375.20
2018-12-17T09:35:47.255Z,455.20
2018-12-17T09:36:47.274Z,434.60
2018-12-17T09:37:47.237Z,530.10
2018-12-17T09:38:47.246Z,565.30
2018-12-17T09:39:47.226Z,304.80
2018-12-17T09:40:47.217Z,472.00
2018-12-17T09:41:47.218Z,518.50
2018-12-17T09:42:47.261Z,353.50
2018-12-17T09:43:47.194Z,319.50
2018-12-17T09:44:47.213Z,342.70
2018-12-17T09:45:47.246Z,445.70
2018-12-17T09:46:47.174Z,386.20
2018-12-17T09:47:47.195Z,483.50
2018-12-17T09:48:47.179Z,422.50
2018-12-17T09:49:47.172Z,332.60
2018-12-17T09:50:47.172Z,376.50
2018-12-17T09:51:47.152Z,442.60
2018-12-17T09:52:47.200Z,385.50
2018-12-17T09:53:47.153Z,406.10
2018-12-17T09:54:47.137Z,303.60
2018-12-17T09:55:47.161Z,342.10
2018-12-17T09:56:47.169Z,388.80
2018-12-17T09:57:47.130Z,473.70
2018-12-17T09:58:47.122Z,307.90
2018-12-17T09:59:47.136Z,209.20
2018-12-17T10:00:47.109Z,219.40
2018-12-17T10:01:47.111Z,239.50
2018-12-17T10:02:47.124Z,226.50
2018-12-17T10:03:47.096Z,193.50
2018-12-17T10:04:47.090Z,245.40
2018-12-17T10:05:47.080Z,270.20
2018-12-17T10:06:47.087Z,278.50
2018-12-17T10:07:47.104Z,323.00
2018-12-17T10:08:47.077Z,274.60
2018-12-17T10:09:47.119Z,386.30
2018-12-17T10:10:47.077Z,282.30
2018-12-17T10:11:47.099Z,220.50
2018-12-17T10:12:47.089Z,397.50
2018-12-17T10:13:47.061Z,482.80
2018-12-17T10:14:47.068Z,268.50
2018-12-17T10:15:47.035Z,356.10
2018-12-17T10:16:47.055Z,323.80
2018-12-17T10:17:47.037Z,324.00
2018-12-17T10:18:47.037Z,275.10
2018-12-17T10:19:47.034Z,263.90
2018-12-17T10:20:47.039Z,291.50
2018-12-17T10:21:47.023Z,246.00
2018-12-17T10:22:47.022Z,226.40
2018-12-17T10:23:47.015Z,339.90
2018-12-17T10:24:47.011Z,342.10
2018-12-17T10:25:46.988Z,353.80
2018-12-17T10:26:47.009Z,343.30
2018-12-17T10:27:46.997Z,376.10
2018-12-17T10:28:46.964Z,283.20
2018-12-17T10:29:46.990Z,347.00
2018-12-17T10:30:46.978Z,300.80
2018-12-17T10:31:46.979Z,296.20
2018-12-17T10:32:47.021Z,212.80
2018-12-17T10:33:47.028Z,305.60
2018-12-17T10:34:46.965Z,218.30
2018-12-17T10:35:47.018Z,239.20
2018-12-17T10:36:46.953Z,308.10
2018-12-17T10:37:46.936Z,217.50
2018-12-17T10:38:46.949Z,244.60
2018-12-17T10:39:46.926Z,278.50
2018-12-17T10:40:46.929Z,314.70
2018-12-17T10:41:46.924Z,275.40
2018-12-17T10:42:46.945Z,296.00
2018-12-17T10:43:46.927Z,224.40
2018-12-17T10:44:46.911Z,260.70
2018-12-17T10:45:46.911Z,370.10
2018-12-17T10:46:46.921Z,256.60
2018-12-17T10:47:46.917Z,338.40
2018-12-17T10:48:46.901Z,364.20
2018-12-17T10:49:47.130Z,285.40
2018-12-17T10:50:46.897Z,189.30
2018-12-17T10:51:46.887Z,235.80
2018-12-17T10:52:46.872Z,308.00
2018-12-17T10:53:46.895Z,227.00
2018-12-17T10:54:46.873Z,203.50
2018-12-17T10:55:46.875Z,176.80
2018-12-17T10:56:46.861Z,241.90
2018-12-17T10:57:46.882Z,205.30
2018-12-17T10:58:46.867Z,183.20
2018-12-17T10:59:46.851Z,347.90
2018-12-17T11:00:46.845Z,299.30
2018-12-17T11:01:46.833Z,290.70
2018-12-17T11:02:46.838Z,309.20
2018-12-17T11:03:46.848Z,240.10
2018-12-17T11:04:46.824Z,142.60
2018-12-17T11:05:46.838Z,244.80
2018-12-17T11:06:46.910Z,186.80
2018-12-17T11:07:46.805Z,200.50
2018-12-17T11:08:46.812Z,244.50
2018-12-17T11:09:46.832Z,189.80
2018-12-17T11:10:46.802Z,213.30
2018-12-17T11:11:46.843Z,188.80
2018-12-17T11:12:46.785Z,74.40
2018-12-17T11:13:46.789Z,96.60
2018-12-17T11:14:46.798Z,73.00
2018-12-17T11:15:46.793Z,89.90
2018-12-17T11:16:46.752Z,81.00
2018-12-17T11:17:46.758Z,82.80
2018-12-17T11:18:46.747Z,132.90
2018-12-17T11:19:46.771Z,99.90
2018-12-17T11:20:46.740Z,71.30
2018-12-17T11:21:46.738Z,59.20
2018-12-17T11:22:46.735Z,55.00
2018-12-17T11:23:46.755Z,49.10
2018-12-17T11:24:46.784Z,48.00
2018-12-17T11:25:46.743Z,55.00
2018-12-17T11:26:46.744Z,58.70
2018-12-17T11:27:46.739Z,37.70
2018-12-17T11:28:46.730Z,56.30
2018-12-17T11:29:48.591Z,57.80
2018-12-17T11:30:46.898Z,57.10
2018-12-17T11:31:46.753Z,42.70
2018-12-17T11:32:46.720Z,32.60
2018-12-17T11:33:46.721Z,47.70
2018-12-17T11:34:46.726Z,37.60
2018-12-17T11:35:46.712Z,33.60
2018-12-17T11:36:46.693Z,25.50
2018-12-17T11:37:46.684Z,23.60
2018-12-17T11:38:46.713Z,20.30
2018-12-17T11:39:46.733Z,22.50
2018-12-17T11:40:46.708Z,26.70
2018-12-17T11:41:46.694Z,21.30
2018-12-17T11:42:46.702Z,23.10
2018-12-17T11:43:46.700Z,24.80
2018-12-17T11:44:46.689Z,22.80
2018-12-17T11:45:46.697Z,29.00
2018-12-17T11:46:46.682Z,17.70
2018-12-17T11:47:46.705Z,19.80
2018-12-17T11:48:46.672Z,18.50
2018-12-17T11:49:46.650Z,17.70
2018-12-17T11:50:46.656Z,18.10
2018-12-17T11:51:46.673Z,19.80
2018-12-17T11:52:46.646Z,19.80
2018-12-17T11:53:46.658Z,25.20
2018-12-17T11:54:46.700Z,26.60
2018-12-17T11:55:46.649Z,21.30
2018-12-17T11:56:46.637Z,16.30
2018-12-17T11:57:48.324Z,16.90
2018-12-17T11:58:46.639Z,14.90
2018-12-17T11:59:46.638Z,14.20
2018-12-17T12:00:53.502Z,15.70
2018-12-17T12:01:46.623Z,13.20
2018-12-17T12:02:46.661Z,13.90
2018-12-17T12:03:46.648Z,14.50
2018-12-17T12:04:46.636Z,13.80
2018-12-17T12:05:46.653Z,11.90
2018-12-17T12:06:46.666Z,14.70
2018-12-17T12:07:46.639Z,12.80
2018-12-17T12:08:46.632Z,13.60
2018-12-17T12:09:46.629Z,12.70
2018-12-17T12:10:46.657Z,13.50
2018-12-17T12:11:46.655Z,12.80
2018-12-17T12:12:46.628Z,11.70
2018-12-17T12:13:46.627Z,11.60
2018-12-17T12:14:46.652Z,12.20
2018-12-17T12:15:46.652Z,12.90